Terminal Aerodrome Forecast
Issued by NWS

Home | Current Version | Previous Version | Text Only | Print | Product List | Glossary On
Versions: 1 2 3 4 5 6 7 8 9 10 11 12 13 14 15 16
000
FTUS43 KGLD 231730
TAFMCK
TAF
KMCK 231730Z 2318/2418 20016G26KT P6SM SCT250
     FM240100 16012KT P6SM VCTS SCT050CB BKN250
     FM240500 13012KT P6SM VCSH SCT050 BKN250 WS020/17050KT
     FM241000 06015G25KT P6SM -RA SCT008 BKN015
     FM241200 03020G30KT P6SM -RA BKN008=

USA.gov is the U.S. government's official web portal to all federal, state and local government web resources and services.